sensor_id;sensor_type;location;lat;lon;timestamp;P1;durP1;ratioP1;P2;durP2;ratioP2
14516;SDS011;7344;50.864;4.362;2022-09-20T00:01:08;4.47;;;2.10;;
14516;SDS011;7344;50.864;4.362;2022-09-20T00:03:51;3.30;;;1.80;;
14516;SDS011;7344;50.864;4.362;2022-09-20T00:06:19;4.90;;;1.77;;
14516;SDS011;7344;50.864;4.362;2022-09-20T00:08:46;5.27;;;2.00;;
14516;SDS011;7344;50.864;4.362;2022-09-20T00:11:14;5.60;;;2.20;;
14516;SDS011;7344;50.864;4.362;2022-09-20T00:13:42;5.20;;;2.60;;
14516;SDS011;7344;50.864;4.362;2022-09-20T00:16:11;3.30;;;2.40;;
14516;SDS011;7344;50.864;4.362;2022-09-20T00:18:38;5.83;;;2.53;;
14516;SDS011;7344;50.864;4.362;2022-09-20T00:21:04;5.33;;;2.60;;
14516;SDS011;7344;50.864;4.362;2022-09-20T00:23:30;3.10;;;2.60;;
14516;SDS011;7344;50.864;4.362;2022-09-20T00:25:57;5.17;;;2.33;;
14516;SDS011;7344;50.864;4.362;2022-09-20T00:28:27;6.30;;;2.70;;
14516;SDS011;7344;50.864;4.362;2022-09-20T00:30:53;7.43;;;2.60;;
14516;SDS011;7344;50.864;4.362;2022-09-20T00:33:20;5.53;;;2.77;;
14516;SDS011;7344;50.864;4.362;2022-09-20T00:35:47;4.60;;;2.37;;
14516;SDS011;7344;50.864;4.362;2022-09-20T00:38:13;4.97;;;2.87;;
14516;SDS011;7344;50.864;4.362;2022-09-20T00:40:40;5.20;;;2.60;;
14516;SDS011;7344;50.864;4.362;2022-09-20T00:43:06;6.27;;;2.87;;
14516;SDS011;7344;50.864;4.362;2022-09-20T00:45:34;4.50;;;2.73;;
14516;SDS011;7344;50.864;4.362;2022-09-20T00:48:01;5.23;;;3.47;;
14516;SDS011;7344;50.864;4.362;2022-09-20T00:50:44;5.87;;;2.63;;
14516;SDS011;7344;50.864;4.362;2022-09-20T00:53:17;11.80;;;3.43;;
14516;SDS011;7344;50.864;4.362;2022-09-20T00:55:48;7.43;;;2.70;;
14516;SDS011;7344;50.864;4.362;2022-09-20T00:58:22;8.73;;;3.13;;
14516;SDS011;7344;50.864;4.362;2022-09-20T01:00:50;5.33;;;3.10;;
14516;SDS011;7344;50.864;4.362;2022-09-20T01:03:19;4.50;;;2.93;;
14516;SDS011;7344;50.864;4.362;2022-09-20T01:05:47;6.07;;;2.93;;
14516;SDS011;7344;50.864;4.362;2022-09-20T01:08:14;3.23;;;2.53;;
14516;SDS011;7344;50.864;4.362;2022-09-20T01:10:41;6.60;;;2.77;;
14516;SDS011;7344;50.864;4.362;2022-09-20T01:13:07;4.63;;;3.00;;
14516;SDS011;7344;50.864;4.362;2022-09-20T01:15:33;3.97;;;2.70;;
14516;SDS011;7344;50.864;4.362;2022-09-20T01:18:02;7.07;;;3.07;;
14516;SDS011;7344;50.864;4.362;2022-09-20T01:20:34;4.97;;;2.47;;
14516;SDS011;7344;50.864;4.362;2022-09-20T01:28:15;6.70;;;3.07;;
14516;SDS011;7344;50.864;4.362;2022-09-20T01:30:46;7.63;;;3.10;;
14516;SDS011;7344;50.864;4.362;2022-09-20T01:36:07;3.90;;;2.67;;
14516;SDS011;7344;50.864;4.362;2022-09-20T01:41:27;5.77;;;3.33;;
14516;SDS011;7344;50.864;4.362;2022-09-20T01:47:23;6.80;;;3.50;;
14516;SDS011;7344;50.864;4.362;2022-09-20T01:49:55;6.57;;;3.17;;
14516;SDS011;7344;50.864;4.362;2022-09-20T01:55:17;5.37;;;2.77;;
14516;SDS011;7344;50.864;4.362;2022-09-20T02:09:17;9.70;;;3.70;;
14516;SDS011;7344;50.864;4.362;2022-09-20T02:17:10;4.87;;;3.67;;
14516;SDS011;7344;50.864;4.362;2022-09-20T02:36:39;6.47;;;3.50;;
14516;SDS011;7344;50.864;4.362;2022-09-20T02:39:20;5.57;;;3.40;;
14516;SDS011;7344;50.864;4.362;2022-09-20T02:47:16;4.57;;;3.80;;
14516;SDS011;7344;50.864;4.362;2022-09-20T02:50:05;7.67;;;4.03;;
14516;SDS011;7344;50.864;4.362;2022-09-20T03:03:32;9.47;;;3.93;;
14516;SDS011;7344;50.864;4.362;2022-09-20T03:17:25;7.80;;;3.87;;
14516;SDS011;7344;50.864;4.362;2022-09-20T03:22:52;4.83;;;3.93;;
14516;SDS011;7344;50.864;4.362;2022-09-20T03:25:50;4.90;;;3.67;;
14516;SDS011;7344;50.864;4.362;2022-09-20T03:42:27;4.63;;;4.10;;
14516;SDS011;7344;50.864;4.362;2022-09-20T03:50:32;4.20;;;3.80;;
14516;SDS011;7344;50.864;4.362;2022-09-20T03:53:29;8.83;;;4.20;;
14516;SDS011;7344;50.864;4.362;2022-09-20T03:56:06;6.30;;;3.97;;
14516;SDS011;7344;50.864;4.362;2022-09-20T04:01:30;9.50;;;4.00;;
14516;SDS011;7344;50.864;4.362;2022-09-20T04:04:21;5.87;;;3.80;;
14516;SDS011;7344;50.864;4.362;2022-09-20T04:17:51;5.13;;;3.90;;
14516;SDS011;7344;50.864;4.362;2022-09-20T04:20:42;5.87;;;3.97;;
14516;SDS011;7344;50.864;4.362;2022-09-20T04:23:57;9.67;;;3.87;;
14516;SDS011;7344;50.864;4.362;2022-09-20T04:26:28;6.87;;;4.03;;
14516;SDS011;7344;50.864;4.362;2022-09-20T04:29:10;8.00;;;4.40;;
14516;SDS011;7344;50.864;4.362;2022-09-20T04:31:49;8.63;;;4.47;;
14516;SDS011;7344;50.864;4.362;2022-09-20T04:34:32;8.17;;;4.27;;
14516;SDS011;7344;50.864;4.362;2022-09-20T04:42:50;7.63;;;4.83;;
14516;SDS011;7344;50.864;4.362;2022-09-20T04:57:25;9.90;;;4.93;;
14516;SDS011;7344;50.864;4.362;2022-09-20T05:00:18;8.80;;;5.00;;
14516;SDS011;7344;50.864;4.362;2022-09-20T05:05:28;9.70;;;5.73;;
14516;SDS011;7344;50.864;4.362;2022-09-20T05:16:47;10.33;;;5.10;;
14516;SDS011;7344;50.864;4.362;2022-09-20T05:25:05;13.30;;;6.00;;
14516;SDS011;7344;50.864;4.362;2022-09-20T05:31:09;10.07;;;5.23;;
14516;SDS011;7344;50.864;4.362;2022-09-20T05:33:51;9.60;;;5.63;;
14516;SDS011;7344;50.864;4.362;2022-09-20T05:36:48;7.33;;;5.23;;
14516;SDS011;7344;50.864;4.362;2022-09-20T05:41:57;11.37;;;5.33;;
14516;SDS011;7344;50.864;4.362;2022-09-20T05:44:30;12.73;;;5.57;;
14516;SDS011;7344;50.864;4.362;2022-09-20T05:56:10;5.97;;;5.37;;
14516;SDS011;7344;50.864;4.362;2022-09-20T05:58:43;12.70;;;5.10;;
14516;SDS011;7344;50.864;4.362;2022-09-20T06:17:56;7.03;;;5.03;;
14516;SDS011;7344;50.864;4.362;2022-09-20T06:20:48;12.47;;;5.63;;
14516;SDS011;7344;50.864;4.362;2022-09-20T06:23:23;13.13;;;5.93;;
14516;SDS011;7344;50.864;4.362;2022-09-20T06:26:00;14.03;;;6.40;;
14516;SDS011;7344;50.864;4.362;2022-09-20T06:31:05;10.30;;;5.90;;
14516;SDS011;7344;50.864;4.362;2022-09-20T06:33:37;11.90;;;5.10;;
14516;SDS011;7344;50.864;4.362;2022-09-20T06:36:10;8.27;;;5.17;;
14516;SDS011;7344;50.864;4.362;2022-09-20T06:42:09;12.13;;;5.13;;
14516;SDS011;7344;50.864;4.362;2022-09-20T06:44:35;20.53;;;5.57;;
14516;SDS011;7344;50.864;4.362;2022-09-20T06:47:05;9.33;;;4.87;;
14516;SDS011;7344;50.864;4.362;2022-09-20T06:49:34;8.52;;;5.45;;
14516;SDS011;7344;50.864;4.362;2022-09-20T06:52:00;7.40;;;4.78;;
14516;SDS011;7344;50.864;4.362;2022-09-20T06:54:29;10.88;;;4.70;;
14516;SDS011;7344;50.864;4.362;2022-09-20T06:56:55;10.38;;;5.00;;
14516;SDS011;7344;50.864;4.362;2022-09-20T06:59:21;10.45;;;5.15;;
14516;SDS011;7344;50.864;4.362;2022-09-20T07:01:47;8.73;;;5.47;;
14516;SDS011;7344;50.864;4.362;2022-09-20T07:04:12;12.43;;;5.38;;
14516;SDS011;7344;50.864;4.362;2022-09-20T07:06:38;10.57;;;5.38;;
14516;SDS011;7344;50.864;4.362;2022-09-20T07:09:04;10.60;;;4.97;;
14516;SDS011;7344;50.864;4.362;2022-09-20T07:11:30;14.15;;;5.32;;
14516;SDS011;7344;50.864;4.362;2022-09-20T07:13:58;6.25;;;4.60;;
14516;SDS011;7344;50.864;4.362;2022-09-20T07:16:24;9.02;;;4.60;;
14516;SDS011;7344;50.864;4.362;2022-09-20T07:18:50;9.95;;;4.97;;
14516;SDS011;7344;50.864;4.362;2022-09-20T07:21:16;12.27;;;5.00;;
14516;SDS011;7344;50.864;4.362;2022-09-20T07:23:43;11.00;;;5.10;;
14516;SDS011;7344;50.864;4.362;2022-09-20T07:26:28;10.13;;;6.07;;
14516;SDS011;7344;50.864;4.362;2022-09-20T07:28:55;10.40;;;5.93;;
14516;SDS011;7344;50.864;4.362;2022-09-20T07:31:22;7.30;;;4.70;;
14516;SDS011;7344;50.864;4.362;2022-09-20T07:33:49;9.38;;;5.40;;
14516;SDS011;7344;50.864;4.362;2022-09-20T07:36:15;11.30;;;5.18;;
14516;SDS011;7344;50.864;4.362;2022-09-20T07:38:45;9.50;;;4.72;;
14516;SDS011;7344;50.864;4.362;2022-09-20T07:41:12;10.70;;;4.90;;
14516;SDS011;7344;50.864;4.362;2022-09-20T07:43:38;10.38;;;4.95;;
14516;SDS011;7344;50.864;4.362;2022-09-20T07:46:03;11.70;;;5.03;;
14516;SDS011;7344;50.864;4.362;2022-09-20T07:48:31;12.48;;;5.15;;
14516;SDS011;7344;50.864;4.362;2022-09-20T07:51:00;12.05;;;4.97;;
14516;SDS011;7344;50.864;4.362;2022-09-20T07:53:27;11.65;;;4.85;;
14516;SDS011;7344;50.864;4.362;2022-09-20T07:56:00;7.90;;;4.63;;
14516;SDS011;7344;50.864;4.362;2022-09-20T07:58:28;8.68;;;4.72;;
14516;SDS011;7344;50.864;4.362;2022-09-20T08:00:56;7.45;;;4.25;;
14516;SDS011;7344;50.864;4.362;2022-09-20T08:03:24;10.75;;;4.93;;
14516;SDS011;7344;50.864;4.362;2022-09-20T08:05:51;9.43;;;4.85;;
14516;SDS011;7344;50.864;4.362;2022-09-20T08:08:22;7.60;;;4.60;;
14516;SDS011;7344;50.864;4.362;2022-09-20T08:10:48;8.27;;;4.65;;
14516;SDS011;7344;50.864;4.362;2022-09-20T08:13:14;11.82;;;4.95;;
14516;SDS011;7344;50.864;4.362;2022-09-20T08:15:40;14.27;;;4.50;;
14516;SDS011;7344;50.864;4.362;2022-09-20T08:18:07;7.45;;;4.68;;
14516;SDS011;7344;50.864;4.362;2022-09-20T08:20:36;11.98;;;4.75;;
14516;SDS011;7344;50.864;4.362;2022-09-20T08:23:03;7.68;;;4.30;;
14516;SDS011;7344;50.864;4.362;2022-09-20T08:25:30;10.98;;;4.35;;
14516;SDS011;7344;50.864;4.362;2022-09-20T08:27:56;7.10;;;4.53;;
14516;SDS011;7344;50.864;4.362;2022-09-20T08:30:21;11.65;;;5.18;;
14516;SDS011;7344;50.864;4.362;2022-09-20T08:32:47;6.80;;;4.57;;
14516;SDS011;7344;50.864;4.362;2022-09-20T08:35:13;7.53;;;4.72;;
14516;SDS011;7344;50.864;4.362;2022-09-20T08:37:40;5.05;;;4.40;;
14516;SDS011;7344;50.864;4.362;2022-09-20T08:40:08;7.65;;;3.95;;
14516;SDS011;7344;50.864;4.362;2022-09-20T08:42:36;6.40;;;4.18;;
14516;SDS011;7344;50.864;4.362;2022-09-20T08:45:10;7.22;;;4.03;;
14516;SDS011;7344;50.864;4.362;2022-09-20T08:47:45;18.48;;;4.90;;
14516;SDS011;7344;50.864;4.362;2022-09-20T08:50:21;12.32;;;4.65;;
14516;SDS011;7344;50.864;4.362;2022-09-20T08:52:47;10.48;;;5.20;;
14516;SDS011;7344;50.864;4.362;2022-09-20T08:55:21;7.88;;;4.45;;
14516;SDS011;7344;50.864;4.362;2022-09-20T08:57:53;5.18;;;3.83;;
14516;SDS011;7344;50.864;4.362;2022-09-20T09:00:22;8.48;;;4.47;;
14516;SDS011;7344;50.864;4.362;2022-09-20T09:02:53;11.60;;;4.47;;
14516;SDS011;7344;50.864;4.362;2022-09-20T09:05:32;7.85;;;4.43;;
14516;SDS011;7344;50.864;4.362;2022-09-20T09:08:02;8.38;;;4.45;;
14516;SDS011;7344;50.864;4.362;2022-09-20T09:10:32;9.05;;;4.45;;
14516;SDS011;7344;50.864;4.362;2022-09-20T09:13:01;10.38;;;3.72;;
14516;SDS011;7344;50.864;4.362;2022-09-20T09:15:30;7.65;;;3.97;;
14516;SDS011;7344;50.864;4.362;2022-09-20T09:18:01;6.28;;;2.78;;
14516;SDS011;7344;50.864;4.362;2022-09-20T09:20:26;7.95;;;3.30;;
14516;SDS011;7344;50.864;4.362;2022-09-20T09:23:03;8.88;;;3.50;;
14516;SDS011;7344;50.864;4.362;2022-09-20T09:25:34;8.48;;;2.65;;
14516;SDS011;7344;50.864;4.362;2022-09-20T09:35:44;5.15;;;3.15;;
14516;SDS011;7344;50.864;4.362;2022-09-20T09:38:22;5.47;;;3.15;;
14516;SDS011;7344;50.864;4.362;2022-09-20T09:40:50;4.00;;;2.85;;
14516;SDS011;7344;50.864;4.362;2022-09-20T09:43:23;11.80;;;4.85;;
14516;SDS011;7344;50.864;4.362;2022-09-20T09:45:52;5.50;;;3.70;;
14516;SDS011;7344;50.864;4.362;2022-09-20T09:48:22;5.32;;;2.55;;
14516;SDS011;7344;50.864;4.362;2022-09-20T09:51:10;5.32;;;3.22;;
14516;SDS011;7344;50.864;4.362;2022-09-20T09:53:39;5.22;;;2.60;;
14516;SDS011;7344;50.864;4.362;2022-09-20T10:07:00;5.15;;;3.00;;
14516;SDS011;7344;50.864;4.362;2022-09-20T10:12:36;6.13;;;2.42;;
14516;SDS011;7344;50.864;4.362;2022-09-20T10:26:51;3.88;;;2.55;;
14516;SDS011;7344;50.864;4.362;2022-09-20T10:29:41;5.50;;;2.78;;
14516;SDS011;7344;50.864;4.362;2022-09-20T10:40:39;4.63;;;2.40;;
14516;SDS011;7344;50.864;4.362;2022-09-20T10:44:06;4.30;;;2.78;;
14516;SDS011;7344;50.864;4.362;2022-09-20T11:01:32;5.22;;;1.92;;
14516;SDS011;7344;50.864;4.362;2022-09-20T11:04:28;7.15;;;2.40;;
14516;SDS011;7344;50.864;4.362;2022-09-20T11:07:10;3.10;;;2.33;;
14516;SDS011;7344;50.864;4.362;2022-09-20T11:09:49;8.98;;;4.20;;
14516;SDS011;7344;50.864;4.362;2022-09-20T11:12:41;9.82;;;3.40;;
14516;SDS011;7344;50.864;4.362;2022-09-20T11:15:19;6.80;;;3.55;;
14516;SDS011;7344;50.864;4.362;2022-09-20T11:18:23;6.97;;;4.03;;
14516;SDS011;7344;50.864;4.362;2022-09-20T11:21:07;10.10;;;4.57;;
14516;SDS011;7344;50.864;4.362;2022-09-20T11:23:53;7.10;;;4.20;;
14516;SDS011;7344;50.864;4.362;2022-09-20T11:26:26;11.32;;;4.60;;
14516;SDS011;7344;50.864;4.362;2022-09-20T11:29:02;4.85;;;3.45;;
14516;SDS011;7344;50.864;4.362;2022-09-20T11:31:35;7.25;;;3.70;;
14516;SDS011;7344;50.864;4.362;2022-09-20T11:36:43;7.80;;;4.30;;
14516;SDS011;7344;50.864;4.362;2022-09-20T11:42:09;10.40;;;3.53;;
14516;SDS011;7344;50.864;4.362;2022-09-20T11:44:39;5.60;;;3.35;;
14516;SDS011;7344;50.864;4.362;2022-09-20T11:55:39;9.07;;;2.50;;
14516;SDS011;7344;50.864;4.362;2022-09-20T11:58:13;3.67;;;2.95;;
14516;SDS011;7344;50.864;4.362;2022-09-20T12:00:42;6.35;;;2.38;;
14516;SDS011;7344;50.864;4.362;2022-09-20T12:06:00;7.28;;;2.72;;
14516;SDS011;7344;50.864;4.362;2022-09-20T12:08:29;4.20;;;2.42;;
14516;SDS011;7344;50.864;4.362;2022-09-20T12:10:59;5.25;;;2.97;;
14516;SDS011;7344;50.864;4.362;2022-09-20T12:13:28;4.90;;;2.80;;
14516;SDS011;7344;50.864;4.362;2022-09-20T12:16:05;6.72;;;2.85;;
14516;SDS011;7344;50.864;4.362;2022-09-20T12:18:46;4.30;;;2.72;;
14516;SDS011;7344;50.864;4.362;2022-09-20T12:21:25;7.72;;;2.97;;
14516;SDS011;7344;50.864;4.362;2022-09-20T12:28:50;6.25;;;2.50;;
14516;SDS011;7344;50.864;4.362;2022-09-20T12:33:56;3.72;;;2.10;;
14516;SDS011;7344;50.864;4.362;2022-09-20T12:36:24;4.55;;;2.30;;
14516;SDS011;7344;50.864;4.362;2022-09-20T12:38:56;5.35;;;2.35;;
14516;SDS011;7344;50.864;4.362;2022-09-20T12:47:27;5.20;;;2.47;;
14516;SDS011;7344;50.864;4.362;2022-09-20T12:49:55;2.63;;;2.00;;
14516;SDS011;7344;50.864;4.362;2022-09-20T12:55:32;5.65;;;2.00;;
14516;SDS011;7344;50.864;4.362;2022-09-20T12:58:36;5.68;;;3.00;;
14516;SDS011;7344;50.864;4.362;2022-09-20T13:03:38;5.65;;;3.15;;
14516;SDS011;7344;50.864;4.362;2022-09-20T13:12:07;4.03;;;1.40;;
14516;SDS011;7344;50.864;4.362;2022-09-20T13:14:25;4.07;;;1.60;;
14516;SDS011;7344;50.864;4.362;2022-09-20T13:16:59;2.50;;;1.52;;
14516;SDS011;7344;50.864;4.362;2022-09-20T13:19:37;5.28;;;2.10;;
14516;SDS011;7344;50.864;4.362;2022-09-20T13:24:47;2.78;;;1.77;;
14516;SDS011;7344;50.864;4.362;2022-09-20T13:27:15;6.53;;;2.28;;
14516;SDS011;7344;50.864;4.362;2022-09-20T13:29:44;5.55;;;1.80;;
14516;SDS011;7344;50.864;4.362;2022-09-20T13:40:34;4.22;;;2.17;;
14516;SDS011;7344;50.864;4.362;2022-09-20T13:46:10;5.43;;;1.83;;
14516;SDS011;7344;50.864;4.362;2022-09-20T13:48:37;8.90;;;4.25;;
14516;SDS011;7344;50.864;4.362;2022-09-20T13:51:13;6.78;;;2.40;;
14516;SDS011;7344;50.864;4.362;2022-09-20T13:53:51;8.35;;;1.90;;
14516;SDS011;7344;50.864;4.362;2022-09-20T13:56:27;8.73;;;2.63;;
14516;SDS011;7344;50.864;4.362;2022-09-20T13:58:54;6.38;;;1.67;;
14516;SDS011;7344;50.864;4.362;2022-09-20T14:01:25;3.17;;;1.17;;
14516;SDS011;7344;50.864;4.362;2022-09-20T14:06:31;7.60;;;1.63;;
14516;SDS011;7344;50.864;4.362;2022-09-20T14:08:57;5.88;;;1.50;;
14516;SDS011;7344;50.864;4.362;2022-09-20T14:11:29;4.97;;;1.75;;
14516;SDS011;7344;50.864;4.362;2022-09-20T14:13:57;5.80;;;1.60;;
14516;SDS011;7344;50.864;4.362;2022-09-20T14:16:29;5.55;;;1.40;;
14516;SDS011;7344;50.864;4.362;2022-09-20T14:18:57;5.07;;;1.95;;
14516;SDS011;7344;50.864;4.362;2022-09-20T14:21:27;6.07;;;2.05;;
14516;SDS011;7344;50.864;4.362;2022-09-20T14:24:01;4.07;;;1.50;;
14516;SDS011;7344;50.864;4.362;2022-09-20T14:26:32;3.42;;;1.60;;
14516;SDS011;7344;50.864;4.362;2022-09-20T14:31:58;5.32;;;1.60;;
14516;SDS011;7344;50.864;4.362;2022-09-20T14:34:28;2.10;;;1.60;;
14516;SDS011;7344;50.864;4.362;2022-09-20T14:37:01;4.53;;;1.85;;
14516;SDS011;7344;50.864;4.362;2022-09-20T14:39:33;1.52;;;1.42;;
14516;SDS011;7344;50.864;4.362;2022-09-20T14:42:14;5.15;;;1.80;;
14516;SDS011;7344;50.864;4.362;2022-09-20T14:44:44;6.10;;;1.75;;
14516;SDS011;7344;50.864;4.362;2022-09-20T14:47:15;3.78;;;1.73;;
14516;SDS011;7344;50.864;4.362;2022-09-20T14:49:43;2.65;;;1.60;;
14516;SDS011;7344;50.864;4.362;2022-09-20T14:52:27;3.50;;;1.90;;
14516;SDS011;7344;50.864;4.362;2022-09-20T14:55:22;3.67;;;1.70;;
14516;SDS011;7344;50.864;4.362;2022-09-20T14:57:52;3.65;;;2.33;;
14516;SDS011;7344;50.864;4.362;2022-09-20T15:00:22;6.78;;;2.33;;
14516;SDS011;7344;50.864;4.362;2022-09-20T15:02:48;5.78;;;2.05;;
14516;SDS011;7344;50.864;4.362;2022-09-20T15:05:24;3.83;;;1.60;;
14516;SDS011;7344;50.864;4.362;2022-09-20T15:07:54;3.95;;;1.83;;
14516;SDS011;7344;50.864;4.362;2022-09-20T15:10:21;6.80;;;2.00;;
14516;SDS011;7344;50.864;4.362;2022-09-20T15:12:47;2.80;;;1.27;;
14516;SDS011;7344;50.864;4.362;2022-09-20T15:15:13;3.20;;;2.05;;
14516;SDS011;7344;50.864;4.362;2022-09-20T15:17:41;3.40;;;1.77;;
14516;SDS011;7344;50.864;4.362;2022-09-20T15:20:11;5.15;;;1.80;;
14516;SDS011;7344;50.864;4.362;2022-09-20T15:22:40;5.60;;;1.90;;
14516;SDS011;7344;50.864;4.362;2022-09-20T15:25:07;3.97;;;1.55;;
14516;SDS011;7344;50.864;4.362;2022-09-20T15:27:38;3.80;;;1.50;;
14516;SDS011;7344;50.864;4.362;2022-09-20T15:30:04;4.90;;;1.67;;
14516;SDS011;7344;50.864;4.362;2022-09-20T15:32:30;4.85;;;1.83;;
14516;SDS011;7344;50.864;4.362;2022-09-20T15:34:55;4.80;;;1.92;;
14516;SDS011;7344;50.864;4.362;2022-09-20T15:37:21;4.63;;;1.80;;
14516;SDS011;7344;50.864;4.362;2022-09-20T15:39:47;6.30;;;1.90;;
14516;SDS011;7344;50.864;4.362;2022-09-20T15:42:13;5.00;;;1.83;;
14516;SDS011;7344;50.864;4.362;2022-09-20T15:44:39;3.85;;;1.77;;
14516;SDS011;7344;50.864;4.362;2022-09-20T15:47:05;2.95;;;2.22;;
14516;SDS011;7344;50.864;4.362;2022-09-20T15:49:30;3.75;;;1.70;;
14516;SDS011;7344;50.864;4.362;2022-09-20T15:51:57;4.38;;;1.67;;
14516;SDS011;7344;50.864;4.362;2022-09-20T15:54:22;3.08;;;1.70;;
14516;SDS011;7344;50.864;4.362;2022-09-20T15:56:50;4.53;;;1.80;;
14516;SDS011;7344;50.864;4.362;2022-09-20T15:59:17;5.43;;;1.77;;
14516;SDS011;7344;50.864;4.362;2022-09-20T16:01:47;3.45;;;1.92;;
14516;SDS011;7344;50.864;4.362;2022-09-20T16:04:16;7.43;;;2.00;;
14516;SDS011;7344;50.864;4.362;2022-09-20T16:06:44;7.00;;;1.80;;
14516;SDS011;7344;50.864;4.362;2022-09-20T16:09:11;4.55;;;1.65;;
14516;SDS011;7344;50.864;4.362;2022-09-20T16:11:37;3.43;;;1.90;;
14516;SDS011;7344;50.864;4.362;2022-09-20T16:14:03;4.17;;;2.10;;
14516;SDS011;7344;50.864;4.362;2022-09-20T16:16:30;3.37;;;1.77;;
14516;SDS011;7344;50.864;4.362;2022-09-20T16:18:57;3.77;;;1.90;;
14516;SDS011;7344;50.864;4.362;2022-09-20T16:21:42;3.93;;;1.60;;
14516;SDS011;7344;50.864;4.362;2022-09-20T16:24:11;6.47;;;2.10;;
14516;SDS011;7344;50.864;4.362;2022-09-20T16:26:37;5.93;;;2.23;;
14516;SDS011;7344;50.864;4.362;2022-09-20T16:29:03;2.53;;;1.80;;
14516;SDS011;7344;50.864;4.362;2022-09-20T16:31:38;3.83;;;1.90;;
14516;SDS011;7344;50.864;4.362;2022-09-20T16:37:06;4.20;;;2.00;;
14516;SDS011;7344;50.864;4.362;2022-09-20T16:39:36;5.87;;;1.93;;
14516;SDS011;7344;50.864;4.362;2022-09-20T16:42:05;4.47;;;1.80;;
14516;SDS011;7344;50.864;4.362;2022-09-20T16:44:33;4.50;;;1.70;;
14516;SDS011;7344;50.864;4.362;2022-09-20T16:47:00;15.10;;;12.97;;
14516;SDS011;7344;50.864;4.362;2022-09-20T16:49:27;7.13;;;2.50;;
14516;SDS011;7344;50.864;4.362;2022-09-20T16:51:53;7.90;;;2.20;;
14516;SDS011;7344;50.864;4.362;2022-09-20T16:54:19;4.70;;;2.00;;
14516;SDS011;7344;50.864;4.362;2022-09-20T16:56:46;9.43;;;2.27;;
14516;SDS011;7344;50.864;4.362;2022-09-20T16:59:14;7.27;;;2.30;;
14516;SDS011;7344;50.864;4.362;2022-09-20T17:01:41;7.70;;;1.90;;
14516;SDS011;7344;50.864;4.362;2022-09-20T17:04:07;5.70;;;2.27;;
14516;SDS011;7344;50.864;4.362;2022-09-20T17:06:34;6.73;;;2.20;;
14516;SDS011;7344;50.864;4.362;2022-09-20T17:09:02;7.47;;;2.10;;
14516;SDS011;7344;50.864;4.362;2022-09-20T17:11:30;6.10;;;2.30;;
14516;SDS011;7344;50.864;4.362;2022-09-20T17:13:59;2.97;;;2.27;;
14516;SDS011;7344;50.864;4.362;2022-09-20T17:16:26;6.23;;;2.70;;
14516;SDS011;7344;50.864;4.362;2022-09-20T17:19:01;4.67;;;2.27;;
14516;SDS011;7344;50.864;4.362;2022-09-20T17:21:31;7.57;;;2.93;;
14516;SDS011;7344;50.864;4.362;2022-09-20T17:23:58;5.17;;;2.33;;
14516;SDS011;7344;50.864;4.362;2022-09-20T17:26:25;6.33;;;2.27;;
14516;SDS011;7344;50.864;4.362;2022-09-20T17:28:55;5.27;;;2.47;;
14516;SDS011;7344;50.864;4.362;2022-09-20T17:31:23;3.30;;;2.30;;
14516;SDS011;7344;50.864;4.362;2022-09-20T17:33:56;4.57;;;2.40;;
14516;SDS011;7344;50.864;4.362;2022-09-20T17:36:24;5.57;;;2.60;;
14516;SDS011;7344;50.864;4.362;2022-09-20T17:38:54;4.73;;;2.77;;
14516;SDS011;7344;50.864;4.362;2022-09-20T17:41:22;5.53;;;2.50;;
14516;SDS011;7344;50.864;4.362;2022-09-20T17:43:52;4.20;;;2.63;;
14516;SDS011;7344;50.864;4.362;2022-09-20T17:46:23;5.53;;;2.67;;
14516;SDS011;7344;50.864;4.362;2022-09-20T17:48:55;6.10;;;2.50;;
14516;SDS011;7344;50.864;4.362;2022-09-20T17:51:23;5.20;;;2.87;;
14516;SDS011;7344;50.864;4.362;2022-09-20T17:53:51;5.50;;;2.90;;
14516;SDS011;7344;50.864;4.362;2022-09-20T17:56:17;8.20;;;2.87;;
14516;SDS011;7344;50.864;4.362;2022-09-20T17:58:44;5.73;;;2.77;;
14516;SDS011;7344;50.864;4.362;2022-09-20T18:01:11;5.70;;;3.10;;
14516;SDS011;7344;50.864;4.362;2022-09-20T18:03:39;4.30;;;2.87;;
14516;SDS011;7344;50.864;4.362;2022-09-20T18:08:48;8.70;;;3.77;;
14516;SDS011;7344;50.864;4.362;2022-09-20T18:11:35;6.27;;;3.60;;
14516;SDS011;7344;50.864;4.362;2022-09-20T18:14:03;16.63;;;9.93;;
14516;SDS011;7344;50.864;4.362;2022-09-20T18:16:31;7.27;;;3.57;;
14516;SDS011;7344;50.864;4.362;2022-09-20T18:18:57;6.17;;;4.93;;
14516;SDS011;7344;50.864;4.362;2022-09-20T18:21:27;6.73;;;3.60;;
14516;SDS011;7344;50.864;4.362;2022-09-20T18:23:54;6.33;;;3.50;;
14516;SDS011;7344;50.864;4.362;2022-09-20T18:26:22;9.77;;;3.70;;
14516;SDS011;7344;50.864;4.362;2022-09-20T18:28:55;8.07;;;3.93;;
14516;SDS011;7344;50.864;4.362;2022-09-20T18:31:41;10.13;;;4.20;;
14516;SDS011;7344;50.864;4.362;2022-09-20T18:34:17;5.97;;;4.07;;
14516;SDS011;7344;50.864;4.362;2022-09-20T18:36:48;5.27;;;4.10;;
14516;SDS011;7344;50.864;4.362;2022-09-20T18:39:16;13.63;;;4.23;;
14516;SDS011;7344;50.864;4.362;2022-09-20T18:41:44;7.57;;;4.00;;
14516;SDS011;7344;50.864;4.362;2022-09-20T18:44:11;18.60;;;4.63;;
14516;SDS011;7344;50.864;4.362;2022-09-20T18:46:38;8.33;;;4.03;;
14516;SDS011;7344;50.864;4.362;2022-09-20T18:49:07;8.00;;;3.87;;
14516;SDS011;7344;50.864;4.362;2022-09-20T18:51:36;6.77;;;4.10;;
14516;SDS011;7344;50.864;4.362;2022-09-20T18:54:02;7.07;;;4.23;;
14516;SDS011;7344;50.864;4.362;2022-09-20T18:56:29;10.10;;;3.87;;
14516;SDS011;7344;50.864;4.362;2022-09-20T18:59:00;7.33;;;3.80;;
14516;SDS011;7344;50.864;4.362;2022-09-20T19:26:02;11.43;;;4.70;;
14516;SDS011;7344;50.864;4.362;2022-09-20T19:28:32;11.83;;;4.90;;
14516;SDS011;7344;50.864;4.362;2022-09-20T19:30:58;8.10;;;5.67;;
14516;SDS011;7344;50.864;4.362;2022-09-20T19:33:24;12.87;;;6.40;;
14516;SDS011;7344;50.864;4.362;2022-09-20T19:35:50;12.13;;;6.63;;
14516;SDS011;7344;50.864;4.362;2022-09-20T19:41:15;9.83;;;6.50;;
14516;SDS011;7344;50.864;4.362;2022-09-20T19:47:06;10.60;;;6.50;;
14516;SDS011;7344;50.864;4.362;2022-09-20T19:52:41;9.50;;;5.43;;
14516;SDS011;7344;50.864;4.362;2022-09-20T19:55:11;12.10;;;6.23;;
14516;SDS011;7344;50.864;4.362;2022-09-20T19:57:41;11.00;;;6.07;;
14516;SDS011;7344;50.864;4.362;2022-09-20T20:00:11;11.80;;;6.07;;
14516;SDS011;7344;50.864;4.362;2022-09-20T20:02:39;13.63;;;6.40;;
14516;SDS011;7344;50.864;4.362;2022-09-20T20:05:15;10.70;;;6.17;;
14516;SDS011;7344;50.864;4.362;2022-09-20T20:07:48;10.60;;;6.20;;
14516;SDS011;7344;50.864;4.362;2022-09-20T20:10:25;8.27;;;5.90;;
14516;SDS011;7344;50.864;4.362;2022-09-20T20:13:07;8.00;;;5.53;;
14516;SDS011;7344;50.864;4.362;2022-09-20T20:15:59;15.70;;;6.67;;
14516;SDS011;7344;50.864;4.362;2022-09-20T20:21:22;11.87;;;6.30;;
14516;SDS011;7344;50.864;4.362;2022-09-20T20:26:28;9.33;;;5.73;;
14516;SDS011;7344;50.864;4.362;2022-09-20T20:28:55;5.57;;;5.00;;
14516;SDS011;7344;50.864;4.362;2022-09-20T20:31:21;11.83;;;5.17;;
14516;SDS011;7344;50.864;4.362;2022-09-20T20:33:47;9.80;;;6.33;;
14516;SDS011;7344;50.864;4.362;2022-09-20T20:36:14;11.27;;;5.93;;
14516;SDS011;7344;50.864;4.362;2022-09-20T20:38:41;10.83;;;6.00;;
14516;SDS011;7344;50.864;4.362;2022-09-20T20:41:13;8.10;;;5.13;;
14516;SDS011;7344;50.864;4.362;2022-09-20T20:43:42;10.40;;;5.37;;
14516;SDS011;7344;50.864;4.362;2022-09-20T20:46:11;9.10;;;4.67;;
14516;SDS011;7344;50.864;4.362;2022-09-20T20:48:38;9.70;;;5.53;;
14516;SDS011;7344;50.864;4.362;2022-09-20T20:51:05;11.30;;;5.80;;
14516;SDS011;7344;50.864;4.362;2022-09-20T20:53:36;6.17;;;4.87;;
14516;SDS011;7344;50.864;4.362;2022-09-20T20:56:08;9.07;;;5.23;;
14516;SDS011;7344;50.864;4.362;2022-09-20T20:58:36;6.40;;;4.97;;
14516;SDS011;7344;50.864;4.362;2022-09-20T21:01:16;12.73;;;5.50;;
14516;SDS011;7344;50.864;4.362;2022-09-20T21:03:50;12.83;;;5.27;;
14516;SDS011;7344;50.864;4.362;2022-09-20T21:06:17;8.10;;;5.30;;
14516;SDS011;7344;50.864;4.362;2022-09-20T21:08:45;11.37;;;6.07;;
14516;SDS011;7344;50.864;4.362;2022-09-20T21:11:12;12.03;;;5.90;;
14516;SDS011;7344;50.864;4.362;2022-09-20T21:13:39;9.17;;;5.23;;